Airfield :
LOGIN :

Register | Disclaimer

   EN    FR    IT 

 










Legend :    VFR   Marginal VFR   IFR   Intensive IFR   Very Intensive IFR
Visi :
Ceiling :
>= 8 km
>= 3000ft
5 to 8 km
1000 to 3000 ft
1500m to 5 km
500 to 1000 ft
800 to 1500m
200 to 500 ft
< 800m
< 200 ft
Symbols :   Thunderstorms  Fog  Heavy snow  Heavy precipitations  Wind > 20 kt
SIGMETs :     Misc.  Thunderstorms  Icing  Turbulence  Mountain Waves  Volcanic Ashes







- Airport Elevation : 183 ft
- IATA code : HAJ


EDDV - Hanover/Langenhagen Int.

CURRENT METAR :
  • 171920Z 22005KT CAVOK 04/01 Q1024 NOSIG

EXPIRED METARs :
  • 171850Z 23004KT CAVOK 04/01 Q1025 NOSIG
  • 171820Z 23004KT 9999 FEW047 04/01 Q1025 NOSIG
  • 171750Z 24004KT 9999 FEW047 05/01 Q1025 NOSIG
  • 171720Z 23004KT 9999 FEW048 05/01 Q1025 NOSIG
  • 171650Z 23003KT 200V260 9999 FEW035 06/02 Q1025 NOSIG

TAF TAF EDDV
Valid from the 17 at 18:00 until the 18 at 18:00 UTC


171700Z 1718/1818 23006KT 9999 FEW030
BECMG 1807/1809 24015G30KT
TEMPO 1812/1815 SHRA
PROB30
TEMPO 1813/1815 BKN014CB
BECMG 1813/1815 28012KT
PROB30
TEMPO 1815/1816 29015G25KT SHRA
No reported NOTAMs for that airfield.



MET'MAP, your aeronautical weather chart ! - Copyright ORBIFLY December 2007 - Disclaimer

ORBIFLY MET'MAP TEAM :

Programming & Development : Alexandra Zaïnal
Concept & Development : Baudouin d'Aumeries
Co-Development & Prog : Marc-Olivier Méhu
Technical & hardware support : Manuel Goepfert

Contact : metmap@orbifly.com




SOURCES & CREDITS :

   NOAA